KSVE

Details ICAO KSVE
Name SUSANVILLE MUNI
Region United States
Timezone America/Los_Angeles (UTC-8.0)
Plans Departing 4
Arriving 5
Stats Elevation 4,149 ft / 1,265 m (AMSL)
Location 40.375430° -120.573067°
Runways 2
Magnetic Variation 13.750° E
Sunrise 2017-12-12 15:17:39 UTC / 2017-12-12 07:17:39 Local
Sunset 2017-12-13 00:37:34 UTC / 2017-12-12 16:37:34 Local
Advertisement - Login to hide

Runways

ID Width Length Bearing (true) Bearing (mag) Surface Threshold Offset Overrun Length
07 60 ft / 18 m 2,174 ft / 663 m 89.46° 75.71° Dirt 0 ft / 0 m 0 ft / 0 m
11 75 ft / 23 m 4,046 ft / 1,233 m 129.10° 115.35° Asphalt 0 ft / 0 m 0 ft / 0 m
25 60 ft / 18 m 2,174 ft / 663 m 269.46° 255.71° Dirt 0 ft / 0 m 0 ft / 0 m
29 75 ft / 23 m 4,046 ft / 1,233 m 309.10° 295.35° Asphalt 0 ft / 0 m 0 ft / 0 m

Map

Weather


0- 5 10 15 20 25 30 35+ Temperature / ° C

Clouds and Precipitation
Forecast for 2017-12-12 12:00 UTC. Updated 2 hours ago

Ground ~20,000 ft ~40,000 ft Winds

METAR

KSVE 121035Z AUTO 26003KT 10SM CLR M08/M10 A3057 RMK AO2

TAF

Not found

Frequencies

Recorded 133.80 MHz AWOS 3
Unicom 122.80 MHz CTAF/UNICOM
Warning: Do not use this data for real-world aviation or navigation. No guarantee of current accuracy is given.